Time;durP1;ratioP1;P1;durP2;ratioP2;P2;SDS_P1;SDS_P2;PMS_P1;PMS_P2;Temp;Humidity;BMP_temperature;BMP_pressure;BME280_temperature;BME280_humidity;BME280_pressure;Samples;Min_cycle;Max_cycle;Signal;HPM_P1;HPM_P2
2022/11/16 00:01:06;;;;;;;;;;;11.60;97.90;;;;;;5058432;28;19939;-73
2022/11/16 00:03:34;;;;;;;;;;;11.60;97.90;;;;;;5059349;28;19947;-73
2022/11/16 00:06:01;;;;;;;;;;;11.60;97.90;;;;;;5060921;28;19928;-74
2022/11/16 00:08:28;;;;;;;;;;;11.60;97.90;;;;;;5060750;28;19928;-74
2022/11/16 00:10:55;;;;;;;;;;;11.60;97.90;;;;;;5060140;28;19935;-76
2022/11/16 00:13:22;;;;;;;;;;;11.60;97.90;;;;;;5056106;28;19928;-74
2022/11/16 00:15:55;;;;;;;;;;;11.50;97.90;;;;;;5062498;28;19932;-73
2022/11/16 00:18:22;;;;;;;;;;;11.50;97.90;;;;;;5079380;28;20024;-74
2022/11/16 00:20:50;;;;;;;;;;;11.50;97.90;;;;;;5074947;28;20387;-74
2022/11/16 00:23:16;;;;;;;;;;;11.50;97.90;;;;;;5073203;28;19932;-74
2022/11/16 00:25:43;;;;;;;;;;;11.50;97.90;;;;;;5073913;28;19932;-74
2022/11/16 00:28:10;;;;;;;;;;;11.50;97.90;;;;;;5073446;28;19928;-73
2022/11/16 00:30:36;;;;;;;;;;;11.50;98.00;;;;;;5070940;28;20260;-73
2022/11/16 00:33:04;;;;;;;;;;;11.50;97.90;;;;;;5058759;28;19932;-74
2022/11/16 00:35:30;;;;;;;;;;;11.50;98.00;;;;;;5056789;28;19932;-74
2022/11/16 00:37:58;;;;;;;;;;;11.50;98.00;;;;;;5061982;28;19939;-73
2022/11/16 00:40:25;;;;;;;;;;;11.50;98.00;;;;;;5060461;28;19928;-73
2022/11/16 00:42:51;;;;;;;;;;;11.50;98.00;;;;;;5057752;28;19939;-73
2022/11/16 00:45:18;;;;;;;;;;;11.50;98.00;;;;;;5055952;28;19928;-71
2022/11/16 00:47:44;;;;;;;;;;;11.50;98.00;;;;;;5057938;28;19928;-73
2022/11/16 00:50:11;;;;;;;;;;;11.50;98.00;;;;;;5060300;28;19928;-73
2022/11/16 00:52:37;;;;;;;;;;;11.50;98.00;;;;;;5056538;28;19928;-73
2022/11/16 00:55:06;;;;;;;;;;;11.40;98.00;;;;;;5055897;28;19935;-73
2022/11/16 00:57:35;;;;;;;;;;;11.40;98.00;;;;;;5053350;28;19936;-72
2022/11/16 01:00:01;;;;;;;;;;;11.40;98.00;;;;;;5061616;28;20031;-72
2022/11/16 01:02:28;;;;;;;;;;;11.40;98.00;;;;;;5053556;28;19928;-73
2022/11/16 01:04:54;;;;;;;;;;;11.40;98.00;;;;;;5051030;28;19925;-72
2022/11/16 01:07:21;;;;;;;;;;;11.40;98.00;;;;;;5061250;28;19936;-72
2022/11/16 01:09:47;;;;;;;;;;;11.40;98.00;;;;;;5057349;28;19929;-72
2022/11/16 01:12:16;;;;;;;;;;;11.40;98.00;;;;;;5062128;28;19936;-73
2022/11/16 01:14:43;;;;;;;;;;;11.40;98.10;;;;;;5058644;28;19929;-72
2022/11/16 01:17:10;;;;;;;;;;;11.40;98.10;;;;;;5052963;28;20414;-72
2022/11/16 01:19:37;;;;;;;;;;;11.40;98.10;;;;;;5062122;28;19933;-73
2022/11/16 01:22:04;;;;;;;;;;;11.40;98.10;;;;;;5062055;28;19935;-73
2022/11/16 01:24:30;;;;;;;;;;;11.40;98.10;;;;;;5056203;28;19929;-72
2022/11/16 01:26:57;;;;;;;;;;;11.40;98.10;;;;;;5054715;28;19932;-73
2022/11/16 01:29:26;;;;;;;;;;;11.30;98.10;;;;;;5059830;28;20395;-73
2022/11/16 01:31:52;;;;;;;;;;;11.40;98.10;;;;;;5053212;28;19928;-73
2022/11/16 01:34:19;;;;;;;;;;;11.40;98.10;;;;;;5054875;28;19935;-73
2022/11/16 01:36:45;;;;;;;;;;;11.30;98.10;;;;;;5057626;28;19939;-72
2022/11/16 01:39:12;;;;;;;;;;;11.30;98.10;;;;;;5056079;28;19942;-71
2022/11/16 01:41:39;;;;;;;;;;;11.30;98.10;;;;;;5059699;28;19929;-72
2022/11/16 01:44:26;;;;;;;;;;;11.30;98.10;;;;;;5054571;28;20151;-72
2022/11/16 01:46:54;;;;;;;;;;;11.30;98.10;;;;;;5048878;28;20435;-73
2022/11/16 01:49:22;;;;;;;;;;;11.30;98.10;;;;;;5053790;28;19940;-73
2022/11/16 01:51:50;;;;;;;;;;;11.30;98.10;;;;;;5055645;28;20675;-72
2022/11/16 01:54:17;;;;;;;;;;;11.30;98.20;;;;;;5055515;28;19929;-72
2022/11/16 01:56:45;;;;;;;;;;;11.30;98.20;;;;;;5055986;28;19933;-73
2022/11/16 01:59:11;;;;;;;;;;;11.30;98.20;;;;;;5052854;28;19925;-72
2022/11/16 02:01:38;;;;;;;;;;;11.30;98.20;;;;;;5052302;28;19940;-72
2022/11/16 02:04:06;;;;;;;;;;;11.30;98.20;;;;;;5052188;28;19924;-73
2022/11/16 02:06:38;;;;;;;;;;;11.30;98.20;;;;;;5057231;28;20508;-71
2022/11/16 02:12:03;;;;;;;;;;;11.30;98.20;;;;;;5058603;28;19931;-73
2022/11/16 02:14:35;;;;;;;;;;;11.30;98.30;;;;;;5048016;28;19932;-73
2022/11/16 02:17:16;;;;;;;;;;;11.20;98.20;;;;;;5054576;28;19932;-72
2022/11/16 02:20:00;;;;;;;;;;;11.30;98.30;;;;;;5058357;28;19931;-72
2022/11/16 02:22:36;;;;;;;;;;;11.20;98.30;;;;;;5060694;28;19935;-73
2022/11/16 02:25:04;;;;;;;;;;;11.20;98.30;;;;;;5059818;28;19928;-72
2022/11/16 02:27:49;;;;;;;;;;;11.20;98.30;;;;;;5056430;28;19972;-72
2022/11/16 02:30:18;;;;;;;;;;;11.20;98.30;;;;;;5061064;28;20330;-72
2022/11/16 02:32:48;;;;;;;;;;;11.20;98.30;;;;;;5056550;28;20762;-73
2022/11/16 02:35:16;;;;;;;;;;;11.20;98.30;;;;;;5063499;28;20380;-73
2022/11/16 02:37:45;;;;;;;;;;;11.20;98.30;;;;;;5061655;28;19936;-72
2022/11/16 02:40:13;;;;;;;;;;;11.20;98.30;;;;;;5062553;28;19935;-73
2022/11/16 02:42:41;;;;;;;;;;;11.20;98.30;;;;;;5055348;28;19987;-72
2022/11/16 02:45:10;;;;;;;;;;;11.20;98.30;;;;;;5061098;28;20351;-72
2022/11/16 02:47:39;;;;;;;;;;;11.20;98.30;;;;;;5058888;28;19935;-72
2022/11/16 02:50:08;;;;;;;;;;;11.20;98.40;;;;;;5056827;28;19928;-72
2022/11/16 02:52:35;;;;;;;;;;;11.20;98.40;;;;;;5061273;28;20416;-72
2022/11/16 02:55:02;;;;;;;;;;;11.20;98.40;;;;;;5054721;28;19931;-73
2022/11/16 02:57:37;;;;;;;;;;;11.20;98.40;;;;;;5057239;28;19928;-72
2022/11/16 03:00:04;;;;;;;;;;;11.20;98.40;;;;;;5054108;28;20336;-72
2022/11/16 03:02:35;;;;;;;;;;;11.20;98.40;;;;;;5073913;28;19971;-72
2022/11/16 03:05:05;;;;;;;;;;;11.20;98.40;;;;;;5072580;28;19924;-73
2022/11/16 03:07:33;;;;;;;;;;;11.20;98.50;;;;;;5076543;28;19924;-73
2022/11/16 03:10:00;;;;;;;;;;;11.10;98.40;;;;;;5074576;28;19928;-73
2022/11/16 03:12:28;;;;;;;;;;;11.10;98.40;;;;;;5074227;28;20701;-72
2022/11/16 03:14:55;;;;;;;;;;;11.10;98.50;;;;;;5074467;28;19927;-72
2022/11/16 03:17:25;;;;;;;;;;;11.10;98.50;;;;;;5057313;28;19928;-72
2022/11/16 03:19:54;;;;;;;;;;;11.10;98.50;;;;;;5053027;28;19925;-72
2022/11/16 03:22:24;;;;;;;;;;;11.10;98.60;;;;;;5058186;28;19951;-73
2022/11/16 03:24:51;;;;;;;;;;;11.20;98.60;;;;;;5054384;28;19944;-73
2022/11/16 03:27:24;;;;;;;;;;;11.10;98.60;;;;;;5054046;28;19929;-73
2022/11/16 03:29:55;;;;;;;;;;;11.00;98.60;;;;;;5053932;28;19933;-72
2022/11/16 03:32:27;;;;;;;;;;;11.10;98.70;;;;;;5052612;28;19929;-74
2022/11/16 03:34:56;;;;;;;;;;;11.10;98.70;;;;;;5049146;28;19928;-72
2022/11/16 03:37:24;;;;;;;;;;;11.20;98.80;;;;;;5054413;28;19932;-72
2022/11/16 03:39:52;;;;;;;;;;;11.10;99.10;;;;;;5054562;28;20514;-73
2022/11/16 03:42:21;;;;;;;;;;;11.10;98.80;;;;;;5052018;28;21210;-72
2022/11/16 03:44:49;;;;;;;;;;;11.10;98.80;;;;;;5053533;28;19943;-72
2022/11/16 03:47:16;;;;;;;;;;;11.10;98.90;;;;;;5050305;28;19928;-73
2022/11/16 03:49:43;;;;;;;;;;;11.10;98.90;;;;;;5052172;28;19932;-72
2022/11/16 03:52:10;;;;;;;;;;;11.10;98.90;;;;;;5056406;28;19939;-72
2022/11/16 03:54:38;;;;;;;;;;;11.10;98.90;;;;;;5053082;28;19964;-73
2022/11/16 03:57:05;;;;;;;;;;;11.10;98.90;;;;;;5059537;28;20324;-73
2022/11/16 03:59:31;;;;;;;;;;;11.10;99.00;;;;;;5054409;28;20323;-72
2022/11/16 04:01:58;;;;;;;;;;;11.10;99.00;;;;;;5056547;28;19929;-72
2022/11/16 04:28:11;;;;;;;;;;;11.10;99.00;;;;;;5055157;28;19978;-74
2022/11/16 04:29:10;;;;;;;;;;;11.00;99.00;;;;;;5052676;28;19968;-72
2022/11/16 04:39:48;;;;;;;;;;;11.00;99.10;;;;;;5042303;28;19947;-73
2022/11/16 04:42:18;;;;;;;;;;;11.00;99.00;;;;;;5058128;28;20025;-73
2022/11/16 04:47:29;;;;;;;;;;;11.00;99.00;;;;;;5055700;28;19956;-74
2022/11/16 04:49:56;;;;;;;;;;;11.00;99.00;;;;;;5052742;28;19928;-73
2022/11/16 04:52:22;;;;;;;;;;;11.00;99.00;;;;;;5055113;28;19943;-72
2022/11/16 04:54:49;;;;;;;;;;;11.00;99.00;;;;;;5051194;28;19939;-72
2022/11/16 04:57:17;;;;;;;;;;;11.00;99.30;;;;;;5058705;28;19937;-72
2022/11/16 04:59:43;;;;;;;;;;;11.00;99.50;;;;;;5054643;28;19936;-72
2022/11/16 05:02:10;;;;;;;;;;;11.00;99.60;;;;;;5055474;28;19932;-72
2022/11/16 05:04:37;;;;;;;;;;;11.00;99.60;;;;;;5053269;28;22057;-73
2022/11/16 05:07:09;;;;;;;;;;;11.00;99.60;;;;;;5053746;28;19932;-73
2022/11/16 05:09:38;;;;;;;;;;;11.00;99.60;;;;;;5058753;28;19928;-72
2022/11/16 05:12:05;;;;;;;;;;;11.00;99.50;;;;;;5056104;28;19933;-72
2022/11/16 05:14:33;;;;;;;;;;;11.00;99.50;;;;;;5052474;28;19925;-72
2022/11/16 05:16:59;;;;;;;;;;;11.00;99.40;;;;;;5056688;28;20316;-72
2022/11/16 05:22:10;;;;;;;;;;;11.00;99.30;;;;;;5062367;28;20505;-73
2022/11/16 05:24:37;;;;;;;;;;;11.00;99.30;;;;;;5062027;28;20494;-72
2022/11/16 05:27:05;;;;;;;;;;;10.90;99.30;;;;;;5058758;28;19928;-72
2022/11/16 05:29:33;;;;;;;;;;;10.90;99.30;;;;;;5057047;28;19929;-72
2022/11/16 05:32:00;;;;;;;;;;;10.90;99.30;;;;;;5058118;28;20623;-73
2022/11/16 05:34:26;;;;;;;;;;;10.90;99.30;;;;;;5060459;28;19929;-71
2022/11/16 05:36:53;;;;;;;;;;;11.00;99.30;;;;;;5059254;28;19939;-71
2022/11/16 05:39:19;;;;;;;;;;;10.90;99.30;;;;;;5058652;28;19933;-72
2022/11/16 05:41:46;;;;;;;;;;;10.90;99.30;;;;;;5056424;28;19935;-72
2022/11/16 05:44:13;;;;;;;;;;;10.90;99.30;;;;;;5056578;28;19928;-72
2022/11/16 05:46:41;;;;;;;;;;;10.90;99.30;;;;;;5057945;28;20743;-71
2022/11/16 05:49:08;;;;;;;;;;;10.90;99.30;;;;;;5059387;28;19928;-71
2022/11/16 05:51:34;;;;;;;;;;;10.90;99.30;;;;;;5056036;28;20546;-72
2022/11/16 05:54:01;;;;;;;;;;;10.90;99.40;;;;;;5055775;28;20563;-72
2022/11/16 05:56:28;;;;;;;;;;;10.90;99.40;;;;;;5056765;28;20479;-73
2022/11/16 05:58:55;;;;;;;;;;;10.90;99.40;;;;;;5054721;28;19935;-73
2022/11/16 06:01:21;;;;;;;;;;;10.90;99.50;;;;;;5055460;28;19929;-72
2022/11/16 06:03:49;;;;;;;;;;;10.90;99.50;;;;;;5055443;28;19935;-72
2022/11/16 06:06:16;;;;;;;;;;;10.90;99.50;;;;;;5062195;28;19932;-72
2022/11/16 06:08:42;;;;;;;;;;;10.90;99.60;;;;;;5057187;28;19948;-72
2022/11/16 06:11:09;;;;;;;;;;;10.90;99.60;;;;;;5053813;28;19928;-72
2022/11/16 06:13:36;;;;;;;;;;;10.90;99.60;;;;;;5061737;28;19928;-72
2022/11/16 06:16:03;;;;;;;;;;;10.90;99.60;;;;;;5058508;28;19936;-72
2022/11/16 06:18:29;;;;;;;;;;;10.90;99.60;;;;;;5058660;28;19932;-74
2022/11/16 06:20:57;;;;;;;;;;;10.90;99.70;;;;;;5059860;28;20416;-73
2022/11/16 06:23:24;;;;;;;;;;;10.90;99.70;;;;;;5062871;28;19931;-73
2022/11/16 06:25:52;;;;;;;;;;;10.90;99.80;;;;;;5058817;28;19933;-73
2022/11/16 06:28:19;;;;;;;;;;;10.80;99.80;;;;;;5053997;28;19939;-72
2022/11/16 06:30:45;;;;;;;;;;;10.90;99.80;;;;;;5055661;28;19948;-73
2022/11/16 06:33:12;;;;;;;;;;;10.80;99.70;;;;;;5051280;28;19932;-73
2022/11/16 06:35:38;;;;;;;;;;;10.90;99.80;;;;;;5058856;28;19945;-73
2022/11/16 06:38:06;;;;;;;;;;;10.90;99.80;;;;;;5056783;28;20655;-72
2022/11/16 06:40:33;;;;;;;;;;;10.80;99.80;;;;;;5062320;28;20308;-68
2022/11/16 06:42:59;;;;;;;;;;;10.90;99.90;;;;;;5052767;28;19951;-69
2022/11/16 06:45:26;;;;;;;;;;;10.80;99.90;;;;;;5056079;28;19929;-68
2022/11/16 06:47:53;;;;;;;;;;;10.80;99.90;;;;;;5058655;28;20400;-68
2022/11/16 06:50:19;;;;;;;;;;;10.80;99.90;;;;;;5062311;28;20638;-68
2022/11/16 06:52:46;;;;;;;;;;;10.80;99.90;;;;;;5059702;28;19929;-68
2022/11/16 06:55:14;;;;;;;;;;;10.80;99.90;;;;;;5063541;28;19944;-68
2022/11/16 06:57:40;;;;;;;;;;;10.80;99.90;;;;;;5057300;28;20672;-68
2022/11/16 07:00:08;;;;;;;;;;;10.80;99.80;;;;;;5062076;28;19928;-68
2022/11/16 07:02:36;;;;;;;;;;;10.80;99.90;;;;;;5057099;28;19929;-68
2022/11/16 07:05:02;;;;;;;;;;;10.80;99.90;;;;;;5052096;28;20309;-72
2022/11/16 07:07:29;;;;;;;;;;;10.80;99.90;;;;;;5054168;28;19935;-73
2022/11/16 07:09:55;;;;;;;;;;;10.80;99.90;;;;;;5046555;28;19929;-72
2022/11/16 07:12:23;;;;;;;;;;;10.80;99.90;;;;;;5055697;28;19939;-72
2022/11/16 07:14:50;;;;;;;;;;;10.80;99.90;;;;;;5057416;28;19935;-73
2022/11/16 07:17:16;;;;;;;;;;;10.80;99.90;;;;;;5055149;28;19935;-74
2022/11/16 07:19:43;;;;;;;;;;;10.70;99.90;;;;;;5057686;28;19932;-72
2022/11/16 07:22:09;;;;;;;;;;;10.80;99.90;;;;;;5059969;28;19932;-72
2022/11/16 07:24:36;;;;;;;;;;;10.80;99.90;;;;;;5056640;28;19932;-72
2022/11/16 07:27:03;;;;;;;;;;;10.80;99.90;;;;;;5053732;28;20015;-73
2022/11/16 07:29:30;;;;;;;;;;;10.80;99.90;;;;;;5053395;28;19935;-72
2022/11/16 07:31:57;;;;;;;;;;;10.80;99.90;;;;;;5053841;28;19928;-73
2022/11/16 07:34:24;;;;;;;;;;;10.80;99.90;;;;;;5054691;28;19955;-72
2022/11/16 07:36:50;;;;;;;;;;;10.70;99.80;;;;;;5059352;28;19929;-73
2022/11/16 07:39:17;;;;;;;;;;;10.80;99.90;;;;;;5053029;28;19929;-73
2022/11/16 07:41:44;;;;;;;;;;;10.70;99.80;;;;;;5055882;28;19939;-71
2022/11/16 07:44:10;;;;;;;;;;;10.70;99.80;;;;;;5054992;28;19973;-74
2022/11/16 07:46:38;;;;;;;;;;;10.70;99.80;;;;;;5057463;28;19991;-72
2022/11/16 07:49:05;;;;;;;;;;;10.70;99.80;;;;;;5052706;28;19928;-72
2022/11/16 07:51:32;;;;;;;;;;;10.70;99.80;;;;;;5046940;28;19929;-72
2022/11/16 07:53:58;;;;;;;;;;;10.70;99.70;;;;;;5051391;28;20305;-73
2022/11/16 07:56:25;;;;;;;;;;;10.70;99.70;;;;;;5054823;28;20395;-74
2022/11/16 07:58:51;;;;;;;;;;;10.70;99.70;;;;;;5055967;28;19932;-74
2022/11/16 08:01:18;;;;;;;;;;;10.70;99.80;;;;;;5053025;28;19942;-69
2022/11/16 08:03:46;;;;;;;;;;;10.70;99.80;;;;;;5059314;28;20706;-69
2022/11/16 08:06:16;;;;;;;;;;;10.70;99.80;;;;;;5055856;28;19935;-69
2022/11/16 08:08:42;;;;;;;;;;;10.70;99.80;;;;;;5059701;28;19929;-69
2022/11/16 08:11:10;;;;;;;;;;;10.70;99.80;;;;;;5061298;28;19924;-69
2022/11/16 08:13:37;;;;;;;;;;;10.70;99.80;;;;;;5057775;28;19928;-69
2022/11/16 08:16:06;;;;;;;;;;;10.70;99.80;;;;;;5051064;28;19928;-69
2022/11/16 08:18:33;;;;;;;;;;;10.70;99.90;;;;;;5057545;28;21178;-69
2022/11/16 08:21:01;;;;;;;;;;;10.80;99.90;;;;;;5055338;28;19995;-75
2022/11/16 08:23:28;;;;;;;;;;;10.80;99.90;;;;;;5054321;28;19929;-75
2022/11/16 08:25:57;;;;;;;;;;;10.80;99.90;;;;;;5057284;28;19935;-74
2022/11/16 08:28:24;;;;;;;;;;;10.80;99.90;;;;;;5059139;28;19939;-75
2022/11/16 08:30:51;;;;;;;;;;;10.80;99.90;;;;;;5056839;28;20653;-74
2022/11/16 08:33:20;;;;;;;;;;;10.80;99.90;;;;;;5046941;28;19928;-75
2022/11/16 08:35:47;;;;;;;;;;;10.80;99.90;;;;;;5055862;28;19932;-74
2022/11/16 08:38:15;;;;;;;;;;;10.80;99.90;;;;;;5051411;28;19929;-74
2022/11/16 08:40:41;;;;;;;;;;;10.80;99.90;;;;;;5052636;28;19933;-74
2022/11/16 08:43:09;;;;;;;;;;;10.80;99.90;;;;;;5061036;28;20433;-75
2022/11/16 08:45:36;;;;;;;;;;;10.80;99.90;;;;;;5053697;28;20701;-74
2022/11/16 08:48:03;;;;;;;;;;;10.80;99.90;;;;;;5053380;28;19951;-75
2022/11/16 08:50:30;;;;;;;;;;;10.80;99.90;;;;;;5057316;28;20667;-74
2022/11/16 08:52:57;;;;;;;;;;;10.80;99.90;;;;;;5062878;28;19937;-75
2022/11/16 08:55:25;;;;;;;;;;;10.80;99.90;;;;;;5057915;28;19929;-74
2022/11/16 08:57:52;;;;;;;;;;;10.90;99.90;;;;;;5063239;28;20385;-75
2022/11/16 09:00:18;;;;;;;;;;;10.90;99.90;;;;;;5061171;28;19935;-74
2022/11/16 09:02:45;;;;;;;;;;;10.80;99.90;;;;;;5060607;28;19924;-75
2022/11/16 09:05:11;;;;;;;;;;;10.90;99.80;;;;;;5053396;28;20526;-74
2022/11/16 09:07:39;;;;;;;;;;;10.90;99.80;;;;;;5063298;28;19929;-74
2022/11/16 09:10:06;;;;;;;;;;;10.90;99.70;;;;;;5059256;28;20188;-74
2022/11/16 09:12:34;;;;;;;;;;;10.90;99.70;;;;;;5057641;28;19925;-74
2022/11/16 09:15:00;;;;;;;;;;;10.90;99.70;;;;;;5052419;28;19936;-74
2022/11/16 09:17:27;;;;;;;;;;;10.90;99.70;;;;;;5055308;28;19932;-74
2022/11/16 09:19:53;;;;;;;;;;;11.00;99.70;;;;;;5057055;28;19936;-74
2022/11/16 09:22:20;;;;;;;;;;;10.90;99.70;;;;;;5054174;28;19935;-76
2022/11/16 09:24:47;;;;;;;;;;;11.00;99.60;;;;;;5059240;28;19935;-76
2022/11/16 09:27:13;;;;;;;;;;;11.00;99.60;;;;;;5057461;28;20292;-74
2022/11/16 09:29:41;;;;;;;;;;;11.10;99.60;;;;;;5061127;28;20716;-75
2022/11/16 09:32:08;;;;;;;;;;;11.00;99.60;;;;;;5051230;28;19928;-75
2022/11/16 09:34:35;;;;;;;;;;;11.00;99.60;;;;;;5060231;28;19928;-74
2022/11/16 09:37:01;;;;;;;;;;;11.10;99.60;;;;;;5059207;28;19998;-75
2022/11/16 09:39:30;;;;;;;;;;;11.10;99.90;;;;;;5062130;28;20473;-75
2022/11/16 09:42:05;;;;;;;;;;;11.00;99.50;;;;;;5063230;28;19967;-74
2022/11/16 09:44:38;;;;;;;;;;;11.10;99.50;;;;;;5059801;28;20027;-75
2022/11/16 09:47:09;;;;;;;;;;;11.10;99.50;;;;;;5058938;28;20299;-75
2022/11/16 09:49:39;;;;;;;;;;;11.20;99.40;;;;;;5057963;28;19936;-74
2022/11/16 09:52:08;;;;;;;;;;;11.20;99.40;;;;;;5061824;28;19928;-76
2022/11/16 09:54:36;;;;;;;;;;;11.10;99.40;;;;;;5061258;28;20013;-74
2022/11/16 09:57:07;;;;;;;;;;;11.20;99.50;;;;;;5057869;28;19925;-75
2022/11/16 09:59:37;;;;;;;;;;;11.20;99.40;;;;;;5065393;28;19928;-74
2022/11/16 10:02:14;;;;;;;;;;;11.20;99.40;;;;;;5056909;28;19933;-75
2022/11/16 10:04:46;;;;;;;;;;;11.20;99.40;;;;;;5059202;28;19935;-75
2022/11/16 10:07:14;;;;;;;;;;;11.20;99.40;;;;;;5055599;28;19943;-74
2022/11/16 10:09:40;;;;;;;;;;;11.20;99.40;;;;;;5058154;28;19928;-75
2022/11/16 10:12:15;;;;;;;;;;;11.20;99.40;;;;;;5063037;28;19929;-75
2022/11/16 10:14:47;;;;;;;;;;;11.20;99.40;;;;;;5054163;28;19964;-75
2022/11/16 10:17:19;;;;;;;;;;;11.20;99.40;;;;;;5055855;28;19935;-75
2022/11/16 10:19:52;;;;;;;;;;;11.20;99.40;;;;;;5056220;28;19933;-75
2022/11/16 10:22:24;;;;;;;;;;;11.30;99.40;;;;;;5052638;28;19935;-75
2022/11/16 10:24:56;;;;;;;;;;;11.30;99.40;;;;;;5057010;28;19966;-75
2022/11/16 10:27:33;;;;;;;;;;;11.40;99.30;;;;;;5052784;28;19968;-75
2022/11/16 10:30:07;;;;;;;;;;;11.30;99.20;;;;;;5062101;28;19998;-77
2022/11/16 10:32:35;;;;;;;;;;;11.40;99.50;;;;;;5058347;28;19936;-75
2022/11/16 10:35:04;;;;;;;;;;;11.50;99.20;;;;;;5057960;28;19929;-75
2022/11/16 10:37:32;;;;;;;;;;;11.60;99.10;;;;;;5055595;28;19932;-73
2022/11/16 10:39:59;;;;;;;;;;;11.60;99.00;;;;;;5058928;28;20028;-76
2022/11/16 10:42:30;;;;;;;;;;;11.70;98.80;;;;;;5059448;28;19924;-76
2022/11/16 10:45:01;;;;;;;;;;;11.80;98.60;;;;;;5053552;28;20039;-75
2022/11/16 10:47:33;;;;;;;;;;;11.90;98.40;;;;;;5049913;28;19937;-74
2022/11/16 10:50:01;;;;;;;;;;;11.90;98.10;;;;;;5047763;28;20014;-75
2022/11/16 10:52:28;;;;;;;;;;;12.00;98.00;;;;;;5059489;28;19925;-74
2022/11/16 10:54:55;;;;;;;;;;;12.10;97.90;;;;;;5062250;28;19943;-77
2022/11/16 10:57:23;;;;;;;;;;;12.10;97.70;;;;;;5057749;28;19944;-74
2022/11/16 10:59:52;;;;;;;;;;;12.10;97.70;;;;;;5055446;28;19929;-75
2022/11/16 11:02:33;;;;;;;;;;;12.20;97.60;;;;;;5061658;28;20236;-74
2022/11/16 11:05:04;;;;;;;;;;;12.20;97.60;;;;;;5059706;28;20359;-73
2022/11/16 11:07:33;;;;;;;;;;;12.20;97.60;;;;;;5060300;28;19928;-74
2022/11/16 11:10:00;;;;;;;;;;;12.20;97.50;;;;;;5061068;28;19929;-75
2022/11/16 11:12:39;;;;;;;;;;;12.10;97.40;;;;;;5059795;28;19928;-75
2022/11/16 11:15:18;;;;;;;;;;;12.20;97.40;;;;;;5053781;28;19935;-74
2022/11/16 11:17:46;;;;;;;;;;;12.20;97.40;;;;;;5061609;28;19928;-75
2022/11/16 11:20:20;;;;;;;;;;;12.20;97.30;;;;;;5060290;28;19967;-74
2022/11/16 11:22:51;;;;;;;;;;;12.20;97.40;;;;;;5058551;28;19928;-76
2022/11/16 11:25:19;;;;;;;;;;;12.20;97.40;;;;;;5060373;28;19928;-75
2022/11/16 11:27:46;;;;;;;;;;;12.20;97.50;;;;;;5053344;28;19929;-74
2022/11/16 11:30:18;;;;;;;;;;;12.20;97.50;;;;;;5055742;28;20747;-75
2022/11/16 11:32:44;;;;;;;;;;;12.20;97.50;;;;;;5073832;28;19924;-74
2022/11/16 11:35:21;;;;;;;;;;;12.20;97.50;;;;;;5076014;28;19936;-75
2022/11/16 11:37:50;;;;;;;;;;;12.20;97.40;;;;;;5077068;28;19928;-75
2022/11/16 11:40:19;;;;;;;;;;;12.30;97.20;;;;;;5075694;28;19924;-75
2022/11/16 11:42:56;;;;;;;;;;;12.30;97.10;;;;;;5077848;28;19932;-75
2022/11/16 11:45:25;;;;;;;;;;;12.30;97.10;;;;;;5078219;27;19936;-74
2022/11/16 11:47:53;;;;;;;;;;;12.40;97.10;;;;;;5075956;28;19925;-75
2022/11/16 11:50:21;;;;;;;;;;;12.40;97.40;;;;;;5077372;28;19924;-75
2022/11/16 11:52:57;;;;;;;;;;;12.40;97.00;;;;;;5077394;28;20396;-76
2022/11/16 11:55:24;;;;;;;;;;;12.50;97.00;;;;;;5067756;28;19972;-74
2022/11/16 11:57:52;;;;;;;;;;;12.50;96.90;;;;;;5078342;28;19940;-74
2022/11/16 12:00:19;;;;;;;;;;;12.40;96.90;;;;;;5071044;28;20011;-74
2022/11/16 12:02:54;;;;;;;;;;;12.50;96.90;;;;;;5075141;28;19939;-74
2022/11/16 12:05:27;;;;;;;;;;;12.50;96.90;;;;;;5077636;28;19928;-72
2022/11/16 12:08:03;;;;;;;;;;;12.50;96.90;;;;;;5076871;28;19928;-73
2022/11/16 12:10:33;;;;;;;;;;;12.50;96.90;;;;;;5082269;28;19932;-73
2022/11/16 12:13:06;;;;;;;;;;;12.50;96.90;;;;;;5073173;28;19931;-73
2022/11/16 12:15:37;;;;;;;;;;;12.50;96.80;;;;;;5074193;28;19935;-73
2022/11/16 12:18:11;;;;;;;;;;;12.50;96.50;;;;;;5055749;28;19928;-73
2022/11/16 12:20:42;;;;;;;;;;;12.50;96.60;;;;;;5054640;28;20019;-73
2022/11/16 12:23:22;;;;;;;;;;;12.50;96.70;;;;;;5055201;28;19932;-73
2022/11/16 12:25:53;;;;;;;;;;;12.50;96.70;;;;;;5058243;28;19936;-74
2022/11/16 12:28:29;;;;;;;;;;;12.50;96.70;;;;;;5056015;28;19932;-74
2022/11/16 12:31:04;;;;;;;;;;;12.60;96.70;;;;;;5065238;28;19924;-74
2022/11/16 12:33:36;;;;;;;;;;;12.50;96.70;;;;;;5077215;28;19924;-74
2022/11/16 12:36:06;;;;;;;;;;;12.60;96.70;;;;;;5074904;28;19935;-73
2022/11/16 12:38:42;;;;;;;;;;;12.60;96.70;;;;;;5073399;28;19935;-72
2022/11/16 12:41:17;;;;;;;;;;;12.60;96.60;;;;;;5072745;28;19939;-74
2022/11/16 12:43:46;;;;;;;;;;;12.70;96.30;;;;;;5070235;28;19932;-74
2022/11/16 12:46:18;;;;;;;;;;;12.70;96.00;;;;;;5063726;28;19966;-74
2022/11/16 12:48:54;;;;;;;;;;;12.70;95.90;;;;;;5057220;28;19929;-73
2022/11/16 12:51:28;;;;;;;;;;;12.70;95.90;;;;;;5056451;28;19947;-73
2022/11/16 12:54:03;;;;;;;;;;;12.80;95.80;;;;;;5061886;28;19935;-73
2022/11/16 12:56:37;;;;;;;;;;;12.80;95.80;;;;;;5058954;28;19928;-73
2022/11/16 12:59:12;;;;;;;;;;;12.80;95.90;;;;;;5059548;28;19928;-73
2022/11/16 13:01:43;;;;;;;;;;;12.90;95.60;;;;;;5056656;28;19936;-73
2022/11/16 13:04:10;;;;;;;;;;;12.90;95.50;;;;;;5055613;28;19928;-73
2022/11/16 13:06:39;;;;;;;;;;;13.00;95.30;;;;;;5062744;28;20023;-73
2022/11/16 13:09:09;;;;;;;;;;;13.00;95.20;;;;;;5066439;28;19928;-73
2022/11/16 13:11:38;;;;;;;;;;;13.10;95.20;;;;;;5057039;28;19929;-73
2022/11/16 13:14:06;;;;;;;;;;;13.10;95.10;;;;;;5050610;28;19936;-73
2022/11/16 13:16:33;;;;;;;;;;;13.20;95.10;;;;;;5053577;28;19925;-73
2022/11/16 13:19:01;;;;;;;;;;;13.30;95.10;;;;;;5046494;28;19933;-74
2022/11/16 13:21:35;;;;;;;;;;;13.40;95.00;;;;;;5052063;28;19932;-75
2022/11/16 13:24:07;;;;;;;;;;;13.40;94.80;;;;;;5053698;28;19937;-75
2022/11/16 13:26:40;;;;;;;;;;;13.50;94.20;;;;;;5058648;28;20420;-75
2022/11/16 13:29:11;;;;;;;;;;;13.60;93.00;;;;;;5061511;28;20478;-75
2022/11/16 13:31:39;;;;;;;;;;;13.70;93.00;;;;;;5051930;28;20331;-74
2022/11/16 13:34:07;;;;;;;;;;;13.70;92.60;;;;;;5054885;28;19933;-73
2022/11/16 13:36:44;;;;;;;;;;;13.80;93.00;;;;;;5059279;28;19939;-74
2022/11/16 13:39:12;;;;;;;;;;;13.80;93.20;;;;;;5050964;28;20448;-77
2022/11/16 13:41:40;;;;;;;;;;;13.90;92.50;;;;;;5056971;28;19939;-76
2022/11/16 13:44:12;;;;;;;;;;;14.10;91.60;;;;;;5059944;28;19952;-76
2022/11/16 13:46:42;;;;;;;;;;;14.80;92.10;;;;;;5058383;28;20004;-77
2022/11/16 13:49:19;;;;;;;;;;;15.20;91.50;;;;;;5059668;28;19928;-76
2022/11/16 13:51:50;;;;;;;;;;;15.50;91.00;;;;;;5063846;28;19928;-77
2022/11/16 13:54:26;;;;;;;;;;;15.70;91.00;;;;;;5061449;28;19936;-76
2022/11/16 13:56:54;;;;;;;;;;;15.80;90.50;;;;;;5062334;28;19935;-76
2022/11/16 13:59:23;;;;;;;;;;;15.90;90.80;;;;;;5057817;28;19929;-76
2022/11/16 14:01:54;;;;;;;;;;;15.90;90.40;;;;;;5054355;28;19928;-76
2022/11/16 14:04:39;;;;;;;;;;;15.90;90.20;;;;;;5063126;28;20441;-76
2022/11/16 14:07:27;;;;;;;;;;;15.90;89.90;;;;;;5059908;28;19936;-76
2022/11/16 14:09:53;;;;;;;;;;;15.90;90.40;;;;;;5059316;28;19928;-75
2022/11/16 14:12:41;;;;;;;;;;;15.90;90.50;;;;;;5060864;28;19928;-76
2022/11/16 14:15:14;;;;;;;;;;;15.80;90.30;;;;;;5052072;28;20647;-76
2022/11/16 14:17:51;;;;;;;;;;;15.80;90.30;;;;;;5057470;28;19933;-76
2022/11/16 14:20:26;;;;;;;;;;;15.80;90.40;;;;;;5059787;28;19933;-76
2022/11/16 14:22:56;;;;;;;;;;;15.70;90.60;;;;;;5058850;28;19947;-76
2022/11/16 14:25:37;;;;;;;;;;;15.70;90.90;;;;;;5058001;28;19928;-76
2022/11/16 14:28:08;;;;;;;;;;;15.60;91.10;;;;;;5053648;28;19928;-75
2022/11/16 14:30:47;;;;;;;;;;;15.50;91.30;;;;;;5051939;28;19928;-76
2022/11/16 14:33:18;;;;;;;;;;;15.50;91.50;;;;;;5051271;28;19933;-73
2022/11/16 14:35:51;;;;;;;;;;;15.40;91.60;;;;;;5056499;28;19971;-73
2022/11/16 14:51:36;;;;;;;;;;;18.50;92.50;;;;;;5120347;27;19926;-73
2022/11/16 14:54:04;;;;;;;;;;;15.20;92.30;;;;;;5120040;27;19923;-72
2022/11/16 14:56:31;;;;;;;;;;;15.20;92.40;;;;;;5114041;27;19924;-76
2022/11/16 14:59:00;;;;;;;;;;;15.20;92.50;;;;;;5114007;27;19938;-74
2022/11/16 15:01:28;;;;;;;;;;;15.20;92.50;;;;;;5066062;22;19928;-72
2022/11/16 15:03:57;;;;;;;;;;;15.10;92.50;;;;;;5023589;28;19933;-75
2022/11/16 15:06:25;;;;;;;;;;;15.10;92.50;;;;;;5037985;28;20385;-71
2022/11/16 15:08:55;;;;;;;;;;;15.00;92.50;;;;;;5030847;28;19933;-68
2022/11/16 15:11:23;;;;;;;;;;;15.00;92.50;;;;;;5036009;28;20433;-70
2022/11/16 15:13:50;;;;;;;;;;;15.00;92.50;;;;;;5028911;28;20290;-70
2022/11/16 15:16:18;;;;;;;;;;;15.00;92.60;;;;;;5033854;28;19929;-70
2022/11/16 15:18:57;;;;;;;;;;;15.00;92.60;;;;;;5036374;28;20291;-70